Time;durP1;ratioP1;P1;durP2;ratioP2;P2;SDS_P1;SDS_P2;PMS_P1;PMS_P2;Temp;Humidity;BMP_temperature;BMP_pressure;BME280_temperature;BME280_humidity;BME280_pressure;Samples;Min_cycle;Max_cycle;Signal;HPM_P1;HPM_P2
2022/12/28 00:01:07;;;;;;;14.73;7.55;;;;;;;11.27;100.00;102230.53;2100971;28;20052;-76
2022/12/28 00:02:30;;;;;;;9.90;6.65;;;;;;;11.27;100.00;102226.16;2096172;28;20121;-77
2022/12/28 00:03:53;;;;;;;11.95;7.60;;;;;;;11.30;100.00;102228.91;2103072;28;20039;-77
2022/12/28 00:05:16;;;;;;;16.35;9.73;;;;;;;11.31;100.00;102228.06;2094206;28;20436;-77
2022/12/28 00:06:37;;;;;;;16.80;11.38;;;;;;;11.30;100.00;102225.34;2101303;28;20135;-77
2022/12/28 00:08:00;;;;;;;16.10;10.75;;;;;;;11.32;100.00;102231.59;2100141;28;20521;-77
2022/12/28 00:09:21;;;;;;;16.90;11.68;;;;;;;11.30;100.00;102222.72;2102291;28;20060;-77
2022/12/28 00:10:43;;;;;;;15.00;8.57;;;;;;;11.27;100.00;102225.25;2102164;28;20068;-77
2022/12/28 00:12:05;;;;;;;15.45;8.15;;;;;;;11.23;100.00;102218.94;2102490;28;20040;-77
2022/12/28 00:13:28;;;;;;;12.07;7.78;;;;;;;11.22;100.00;102222.47;2102221;28;20060;-77
2022/12/28 00:14:51;;;;;;;13.73;7.45;;;;;;;11.22;100.00;102230.38;2100601;28;20071;-77
2022/12/28 00:16:21;;;;;;;13.15;7.22;;;;;;;11.24;100.00;102219.84;2102517;28;20529;-77
2022/12/28 00:17:44;;;;;;;11.48;6.97;;;;;;;11.23;100.00;102218.94;2111680;28;20124;-77
2022/12/28 00:19:06;;;;;;;11.80;7.25;;;;;;;11.25;100.00;102219.00;2103399;28;20044;-77
2022/12/28 00:20:28;;;;;;;14.80;7.88;;;;;;;11.25;100.00;102216.38;2101353;28;20151;-77
2022/12/28 00:21:53;;;;;;;12.18;6.90;;;;;;;11.24;100.00;102217.19;2093874;28;20610;-77
2022/12/28 00:23:15;;;;;;;13.43;7.68;;;;;;;11.22;100.00;102219.81;2099562;28;20070;-77
2022/12/28 00:24:37;;;;;;;12.43;7.28;;;;;;;11.22;100.00;102217.16;2102328;28;20489;-77
2022/12/28 00:26:05;;;;;;;13.90;7.20;;;;;;;11.22;100.00;102216.28;2101099;28;20040;-77
2022/12/28 00:27:27;;;;;;;10.48;7.20;;;;;;;11.22;100.00;102222.47;2103014;28;20211;-76
2022/12/28 00:28:49;;;;;;;13.02;7.60;;;;;;;11.23;100.00;102216.28;2092292;28;20048;-76
2022/12/28 00:30:13;;;;;;;15.23;7.28;;;;;;;11.21;100.00;102215.38;2085629;28;20041;-76
2022/12/28 00:31:35;;;;;;;10.95;6.82;;;;;;;11.18;100.00;102213.50;2097544;28;20102;-76
2022/12/28 00:32:57;;;;;;;12.43;7.55;;;;;;;11.15;100.00;102218.69;2102083;28;20044;-76
2022/12/28 00:34:18;;;;;;;15.43;9.05;;;;;;;11.12;100.00;102217.66;2101965;28;20093;-76
2022/12/28 00:35:41;;;;;;;16.88;11.18;;;;;;;11.10;100.00;102216.69;2096259;28;20133;-76
2022/12/28 00:37:04;;;;;;;17.75;10.77;;;;;;;11.11;100.00;102215.84;2096030;28;20078;-76
2022/12/28 00:38:25;;;;;;;17.23;11.82;;;;;;;11.10;100.00;102222.88;2101076;28;20048;-76
2022/12/28 00:39:47;;;;;;;13.45;8.45;;;;;;;11.10;100.00;102216.69;2093689;28;20087;-76
2022/12/28 00:41:09;;;;;;;12.57;8.52;;;;;;;11.10;100.00;102212.31;2093751;28;20139;-76
2022/12/28 00:42:32;;;;;;;11.23;7.45;;;;;;;11.11;100.00;102207.94;2093419;28;20374;-76
2022/12/28 00:43:54;;;;;;;15.32;7.82;;;;;;;11.13;100.00;102216.81;2085500;28;20060;-75
2022/12/28 00:45:18;;;;;;;12.68;8.00;;;;;;;11.13;100.00;102209.81;2099559;28;20093;-73
2022/12/28 00:46:40;;;;;;;15.55;8.57;;;;;;;11.11;100.00;102218.50;2096341;28;20041;-74
2022/12/28 00:48:03;;;;;;;13.05;7.72;;;;;;;11.11;100.00;102208.84;2102080;28;20056;-75
2022/12/28 00:49:26;;;;;;;13.60;8.27;;;;;;;11.12;100.00;102215.03;2091657;28;20091;-74
2022/12/28 00:50:48;;;;;;;16.40;7.90;;;;;;;11.12;100.00;102221.22;2099228;28;20504;-73
2022/12/28 00:52:10;;;;;;;16.35;8.30;;;;;;;11.13;100.00;102219.47;2101940;28;20044;-74
2022/12/28 00:53:32;;;;;;;12.57;8.13;;;;;;;11.16;100.00;102222.19;2086544;28;20053;-74
2022/12/28 00:54:57;;;;;;;13.10;7.97;;;;;;;11.15;100.00;102216.03;2085233;28;20040;-74
2022/12/28 00:56:22;;;;;;;15.52;8.00;;;;;;;11.14;100.00;102211.59;2092923;28;20052;-74
2022/12/28 00:57:44;;;;;;;12.95;8.23;;;;;;;11.14;100.00;102214.25;2095564;28;20439;-74
2022/12/28 00:59:06;;;;;;;15.60;8.90;;;;;;;11.13;100.00;102217.72;2096558;28;20044;-74
2022/12/28 01:00:32;;;;;;;16.35;8.38;;;;;;;11.12;100.00;102207.09;2095401;28;20147;-74
2022/12/28 01:01:55;;;;;;;12.93;8.50;;;;;;;11.10;100.00;102211.41;2108896;28;20136;-74
2022/12/28 01:03:17;;;;;;;15.32;8.68;;;;;;;11.11;100.00;102206.19;2104689;28;20056;-74
2022/12/28 01:04:39;;;;;;;13.95;8.52;;;;;;;11.10;100.00;102208.78;2101297;28;20055;-73
2022/12/28 01:06:05;;;;;;;14.77;8.20;;;;;;;11.09;100.00;102217.56;2104655;28;20126;-73
2022/12/28 01:07:27;;;;;;;12.23;7.35;;;;;;;11.11;100.00;102200.91;2103714;28;20044;-74
2022/12/28 01:08:48;;;;;;;13.43;7.75;;;;;;;11.14;100.00;102202.78;2093681;28;20105;-74
2022/12/28 01:10:11;;;;;;;16.00;7.70;;;;;;;11.15;100.00;102210.75;2092515;28;20036;-74
2022/12/28 01:11:33;;;;;;;14.65;7.55;;;;;;;11.18;100.00;102205.56;2094524;28;20144;-74
2022/12/28 01:12:55;;;;;;;14.82;9.65;;;;;;;11.18;100.00;102209.94;2101111;28;20048;-74
2022/12/28 01:14:18;;;;;;;18.20;9.00;;;;;;;11.17;100.00;102208.16;2102593;28;20044;-73
2022/12/28 01:15:43;;;;;;;18.35;10.15;;;;;;;11.19;100.00;102206.47;2106730;28;20149;-73
2022/12/28 01:17:05;;;;;;;15.00;8.50;;;;;;;11.18;100.00;102208.22;2097812;28;20078;-74
2022/12/28 01:18:27;;;;;;;13.30;8.10;;;;;;;11.20;100.00;102205.63;2098034;28;20097;-74
2022/12/28 01:19:49;;;;;;;14.52;7.75;;;;;;;11.25;100.00;102205.78;2097750;28;20081;-74
2022/12/28 01:21:12;;;;;;;14.38;8.70;;;;;;;11.26;100.00;102204.94;2089268;28;20110;-74
2022/12/28 01:22:37;;;;;;;13.35;8.15;;;;;;;11.23;100.00;102202.19;2093849;28;20048;-74
2022/12/28 01:24:01;;;;;;;13.00;7.80;;;;;;;11.21;100.00;102203.91;2100405;28;20201;-74
2022/12/28 01:25:23;;;;;;;12.82;7.82;;;;;;;11.18;100.00;102191.44;2102574;28;20573;-74
2022/12/28 01:26:45;;;;;;;18.17;8.70;;;;;;;11.15;100.00;102194.91;2102613;28;20377;-74
2022/12/28 01:28:07;;;;;;;16.35;8.23;;;;;;;11.12;100.00;102200.06;2095741;28;20049;-74
2022/12/28 01:29:29;;;;;;;13.23;7.53;;;;;;;11.11;100.00;102197.34;2098536;28;20032;-74
2022/12/28 01:30:52;;;;;;;13.27;8.63;;;;;;;11.10;100.00;102200.84;2103134;28;20085;-74
2022/12/28 01:32:15;;;;;;;14.65;8.27;;;;;;;11.14;100.00;102198.38;2094449;28;20061;-74
2022/12/28 01:33:37;;;;;;;13.90;8.77;;;;;;;11.14;100.00;102195.75;2099788;28;20055;-74
2022/12/28 01:34:59;;;;;;;14.20;7.70;;;;;;;11.14;100.00;102198.38;2105026;28;20044;-73
2022/12/28 01:36:22;;;;;;;13.70;7.78;;;;;;;11.17;100.00;102201.13;2102294;28;20436;-74
2022/12/28 01:37:44;;;;;;;13.32;6.78;;;;;;;11.19;100.00;102202.09;2112193;28;20078;-74
2022/12/28 01:39:06;;;;;;;14.93;7.82;;;;;;;11.18;100.00;102194.09;2105119;28;20136;-74
2022/12/28 01:40:28;;;;;;;15.25;7.32;;;;;;;11.16;100.00;102199.31;2101224;28;20691;-74
2022/12/28 01:41:51;;;;;;;13.00;7.00;;;;;;;11.16;100.00;102201.06;2095332;28;20070;-74
2022/12/28 01:43:13;;;;;;;14.82;7.63;;;;;;;11.14;100.00;102203.66;2100772;28;20059;-75
2022/12/28 01:44:42;;;;;;;17.67;7.50;;;;;;;11.13;100.00;102199.22;2093341;28;20059;-74
2022/12/28 01:46:07;;;;;;;11.43;6.97;;;;;;;11.11;100.00;102198.25;2101608;28;20459;-74
2022/12/28 01:47:35;;;;;;;13.50;7.47;;;;;;;11.09;100.00;102197.28;2097791;28;20110;-73
2022/12/28 01:49:02;;;;;;;11.85;8.02;;;;;;;11.07;100.00;102198.09;2101254;28;20480;-76
2022/12/28 01:50:28;;;;;;;11.70;7.40;;;;;;;11.07;100.00;102198.09;2100682;28;20052;-75
2022/12/28 01:51:57;;;;;;;14.10;6.78;;;;;;;11.06;100.00;102194.56;2101526;28;20040;-76
2022/12/28 01:53:21;;;;;;;11.07;7.22;;;;;;;11.10;100.00;102201.75;2098263;28;20416;-76
2022/12/28 01:54:47;;;;;;;14.55;7.75;;;;;;;11.17;100.00;102198.47;2103249;28;20141;-75
2022/12/28 01:56:10;;;;;;;12.40;8.10;;;;;;;11.21;100.00;102193.31;2103879;28;20040;-76
2022/12/28 01:57:40;;;;;;;14.00;7.50;;;;;;;11.19;100.00;102198.53;2095340;28;20052;-77
2022/12/28 01:59:02;;;;;;;14.23;6.93;;;;;;;11.17;100.00;102197.56;2082908;28;20127;-76
2022/12/28 02:00:25;;;;;;;11.25;7.03;;;;;;;11.13;100.00;102196.59;2096034;28;20671;-76
2022/12/28 02:01:48;;;;;;;11.85;6.43;;;;;;;11.12;100.00;102189.50;2103269;28;20055;-76
2022/12/28 02:03:15;;;;;;;11.38;7.47;;;;;;;11.11;100.00;102190.34;2105539;28;20039;-76
2022/12/28 02:04:37;;;;;;;13.10;7.70;;;;;;;11.09;100.00;102192.00;2109457;28;20054;-76
2022/12/28 02:06:02;;;;;;;12.60;7.80;;;;;;;11.06;100.00;102191.91;2105561;28;20547;-76
2022/12/28 02:07:35;;;;;;;9.65;6.25;;;;;;;11.03;100.00;102183.84;2101876;28;20055;-76
2022/12/28 02:09:03;;;;;;;12.32;7.00;;;;;;;11.02;100.00;102182.09;2095895;28;20039;-76
2022/12/28 02:10:26;;;;;;;12.02;7.22;;;;;;;11.00;100.00;102181.13;2100094;28;20043;-76
2022/12/28 02:11:49;;;;;;;13.52;7.22;;;;;;;10.98;100.00;102177.50;2103098;28;20062;-76
2022/12/28 02:13:14;;;;;;;15.70;7.38;;;;;;;10.98;100.00;102184.53;2096406;28;20143;-76
2022/12/28 02:14:36;;;;;;;11.43;7.55;;;;;;;10.95;100.00;102177.41;2093255;28;20041;-76
2022/12/28 02:15:58;;;;;;;;;;;;;;;10.87;100.00;102178.88;2091565;28;20139;-76
2022/12/28 02:17:21;;;;;;;13.48;7.00;;;;;;;10.86;100.00;102179.72;2091075;28;19942;-76
2022/12/28 02:18:45;;;;;;;12.07;7.45;;;;;;;10.86;100.00;102182.34;2092075;28;20385;-76
2022/12/28 02:20:08;;;;;;;14.55;7.50;;;;;;;10.85;100.00;102183.19;2094871;28;20040;-76
2022/12/28 02:21:51;;;;;;;13.98;7.68;;;;;;;10.84;100.00;102172.56;2089138;28;20044;-77
2022/12/28 02:23:29;;;;;;;14.75;7.55;;;;;;;10.81;100.00;102176.00;2097475;28;20044;-77
2022/12/28 02:25:13;;;;;;;13.20;7.68;;;;;;;10.79;100.00;102173.31;2096406;28;20042;-77
2022/12/28 02:26:50;;;;;;;13.93;7.53;;;;;;;10.78;100.00;102170.59;2097290;28;20045;-76
2022/12/28 02:28:30;;;;;;;13.07;7.55;;;;;;;10.78;100.00;102170.59;2108795;28;20063;-77
2022/12/28 02:30:07;;;;;;;14.00;7.60;;;;;;;10.78;100.00;102175.88;2095691;28;20435;-77
2022/12/28 02:31:35;;;;;;;10.18;6.90;;;;;;;10.79;100.00;102175.94;2095220;28;20135;-76
2022/12/28 02:33:04;;;;;;;12.60;7.28;;;;;;;10.82;100.00;102174.25;2093452;28;20047;-76
2022/12/28 02:34:32;;;;;;;12.98;7.82;;;;;;;10.82;100.00;102161.97;2085720;28;20493;-76
2022/12/28 02:35:59;;;;;;;12.02;6.93;;;;;;;10.83;100.00;102176.94;2101590;28;20044;-76
2022/12/28 02:37:25;;;;;;;11.05;7.05;;;;;;;10.84;100.00;102176.09;2092864;28;20060;-76
2022/12/28 02:38:50;;;;;;;11.98;7.45;;;;;;;10.88;100.00;102178.03;2092998;28;20036;-76
2022/12/28 02:40:17;;;;;;;11.18;6.93;;;;;;;10.89;100.00;102171.91;2100819;28;20040;-75
2022/12/28 02:41:40;;;;;;;12.25;6.70;;;;;;;10.91;100.00;102171.94;2094780;28;20047;-75
2022/12/28 02:43:03;;;;;;;11.55;7.13;;;;;;;10.93;100.00;102171.16;2094813;28;20516;-74
2022/12/28 02:51:52;;;;;;;13.98;6.97;;;;;;;11.01;100.00;102175.00;2093243;28;20707;-74
2022/12/28 02:53:41;;;;;;;11.90;6.78;;;;;;;11.03;100.00;102170.66;2097909;28;20575;-74
2022/12/28 02:56:59;;;;;;;11.30;7.30;;;;;;;11.05;100.00;102181.28;2097203;28;20079;-76
2022/12/28 02:58:52;;;;;;;11.20;7.63;;;;;;;11.08;100.00;102186.69;2101507;28;20454;-76
2022/12/28 03:00:17;;;;;;;11.02;7.20;;;;;;;11.05;100.00;102182.19;2097045;28;20515;-76
2022/12/28 03:02:09;;;;;;;12.95;8.25;;;;;;;11.08;100.00;102182.31;2100633;28;20465;-76
2022/12/28 03:03:40;;;;;;;12.65;7.20;;;;;;;11.10;100.00;102177.06;2098524;28;20052;-75
2022/12/28 03:05:12;;;;;;;12.02;6.35;;;;;;;11.13;100.00;102179.81;2095176;28;20556;-76
2022/12/28 03:08:34;;;;;;;11.13;7.05;;;;;;;11.16;100.00;102175.53;2105069;28;20048;-74
2022/12/28 03:10:14;;;;;;;12.55;6.15;;;;;;;11.19;100.00;102173.00;2103125;28;20098;-76
2022/12/28 03:11:44;;;;;;;11.50;6.40;;;;;;;11.22;100.00;102168.69;2102834;28;20048;-76
2022/12/28 03:13:41;;;;;;;11.27;6.85;;;;;;;11.27;100.00;102172.38;2094350;28;20048;-74
2022/12/28 03:14:59;;;;;;;13.25;6.38;;;;;;;11.34;100.00;102177.94;2100142;28;20527;-74
2022/12/28 03:16:27;;;;;;;10.35;6.50;;;;;;;11.42;100.00;102175.59;2093847;28;20094;-74
2022/12/28 03:31:35;;;;;;;13.15;7.47;;;;;;;11.84;100.00;102174.41;2093273;28;20527;-74
2022/12/28 03:33:03;;;;;;;14.60;7.65;;;;;;;11.89;100.00;102171.91;2093530;28;20040;-74
2022/12/28 03:34:24;;;;;;;11.80;8.05;;;;;;;11.93;100.00;102171.19;2088647;28;20049;-75
2022/12/28 03:35:55;;;;;;;19.23;16.95;;;;;;;11.95;100.00;102173.00;2093248;28;20083;-74
2022/12/28 03:37:25;;;;;;;39.83;36.13;;;;;;;11.98;100.00;102178.41;2103582;28;20093;-74
2022/12/28 03:38:55;;;;;;;26.83;24.17;;;;;;;12.05;100.00;102183.91;2093256;28;20044;-76
2022/12/28 03:40:26;;;;;;;21.95;19.73;;;;;;;12.09;100.00;102175.19;2091398;28;20519;-76
2022/12/28 03:43:42;;;;;;;12.57;10.13;;;;;;;12.14;100.00;102178.91;2096627;28;20143;-76
2022/12/28 03:45:15;;;;;;;20.25;18.17;;;;;;;12.16;100.00;102177.19;2099229;28;20060;-77
2022/12/28 03:46:45;;;;;;;22.80;20.60;;;;;;;12.20;100.00;102176.47;2089271;28;20055;-76
2022/12/28 03:48:09;;;;;;;22.15;19.98;;;;;;;12.21;100.00;102179.13;2092617;28;20040;-76
2022/12/28 03:49:30;;;;;;;19.95;18.00;;;;;;;12.22;100.00;102178.28;2094377;28;20078;-76
2022/12/28 03:50:55;;;;;;;21.90;19.95;;;;;;;12.25;100.00;102183.69;2090885;28;20464;-77
2022/12/28 03:52:18;;;;;;;13.68;11.65;;;;;;;12.26;100.00;102177.56;2093828;28;20128;-77
2022/12/28 03:53:43;;;;;;;21.13;18.90;;;;;;;12.28;100.00;102174.94;2088507;28;20431;-76
2022/12/28 03:55:09;;;;;;;27.40;24.67;;;;;;;12.31;100.00;102177.69;2093701;28;20135;-76
2022/12/28 03:56:30;;;;;;;22.40;20.33;;;;;;;12.32;100.00;102182.13;2099897;28;20063;-76
2022/12/28 03:57:56;;;;;;;14.05;12.63;;;;;;;12.35;100.00;102187.50;2096814;28;20048;-77
2022/12/28 03:59:21;;;;;;;13.02;11.70;;;;;;;12.36;100.00;102189.31;2094480;28;20405;-75
2022/12/28 04:00:47;;;;;;;19.92;17.10;;;;;;;12.39;100.00;102186.78;2099374;28;20131;-75
2022/12/28 04:02:08;;;;;;;29.40;20.08;;;;;;;12.40;100.00;102188.56;2093100;28;20059;-75
2022/12/28 04:03:31;;;;;;;14.38;12.13;;;;;;;12.41;100.00;102190.34;2093004;28;20086;-76
2022/12/28 04:04:54;;;;;;;13.90;9.60;;;;;;;12.44;100.00;102185.16;2093860;28;20094;-75
2022/12/28 04:06:19;;;;;;;11.48;6.40;;;;;;;12.47;100.00;102190.53;2098798;28;20056;-75
2022/12/28 04:07:41;;;;;;;10.45;7.82;;;;;;;12.50;100.00;102184.44;2101418;28;20457;-75
2022/12/28 04:09:04;;;;;;;10.77;7.97;;;;;;;12.53;100.00;102190.75;2093003;28;20048;-75
2022/12/28 04:10:29;;;;;;;13.20;8.00;;;;;;;12.53;100.00;102185.44;2100727;28;20305;-75
2022/12/28 04:11:51;;;;;;;9.75;6.53;;;;;;;12.54;100.00;102186.31;2101332;28;20526;-75
2022/12/28 04:13:20;;;;;;;12.32;7.38;;;;;;;12.54;100.00;102188.97;2096370;28;20055;-73
2022/12/28 04:14:49;;;;;;;12.15;6.55;;;;;;;12.55;100.00;102186.38;2093127;28;20135;-73
2022/12/28 04:16:13;;;;;;;11.00;5.53;;;;;;;12.54;100.00;102191.63;2089989;28;20136;-73
2022/12/28 04:17:36;;;;;;;9.48;5.80;;;;;;;12.52;100.00;102196.00;2091837;28;20137;-73
2022/12/28 04:19:00;;;;;;;11.77;5.88;;;;;;;12.49;100.00;102191.50;2089649;28;20450;-73
2022/12/28 04:20:22;;;;;;;12.60;7.32;;;;;;;12.48;100.00;102194.97;2090324;28;20048;-73
2022/12/28 04:21:47;;;;;;;10.07;5.53;;;;;;;12.48;100.00;102202.94;2089140;28;20574;-73
2022/12/28 04:23:09;;;;;;;40.90;37.00;;;;;;;12.48;100.00;102197.63;2090226;28;20094;-74
2022/12/28 04:24:31;;;;;;;62.17;55.85;;;;;;;12.48;100.00;102208.22;2093916;28;20056;-73
2022/12/28 04:25:57;;;;;;;80.00;73.00;;;;;;;12.48;100.00;102202.94;2096716;28;20046;-74
2022/12/28 04:27:22;;;;;;;45.22;40.70;;;;;;;12.49;100.00;102203.81;2087792;28;20049;-74
2022/12/28 04:28:45;;;;;;;22.13;19.40;;;;;;;12.50;100.00;102210.94;2094613;28;20089;-74
2022/12/28 04:30:31;;;;;;;19.17;15.10;;;;;;;12.49;100.00;102209.13;2086827;28;20501;-74
2022/12/28 04:31:52;;;;;;;34.00;27.85;;;;;;;12.50;100.00;102203.88;2093108;28;20040;-74
2022/12/28 04:33:16;;;;;;;36.42;32.20;;;;;;;12.53;100.00;102201.34;2092071;28;20486;-74
2022/12/28 04:34:42;;;;;;;45.00;33.70;;;;;;;12.53;100.00;102209.28;2099176;28;21239;-74
2022/12/28 04:36:08;;;;;;;33.88;28.67;;;;;;;12.53;100.00;102205.75;2094018;28;20040;-73
2022/12/28 04:37:31;;;;;;;33.58;28.27;;;;;;;12.52;100.00;102203.94;2095655;28;20041;-74
2022/12/28 04:38:53;;;;;;;24.25;21.40;;;;;;;12.48;100.00;102204.69;2098698;28;20048;-74
2022/12/28 04:40:15;;;;;;;24.20;19.85;;;;;;;12.47;100.00;102208.22;2101795;28;20093;-74
2022/12/28 04:41:38;;;;;;;21.65;15.48;;;;;;;12.45;100.00;102212.53;2102096;28;20044;-74
2022/12/28 04:43:00;;;;;;;14.40;12.00;;;;;;;12.45;100.00;102209.91;2101087;28;20058;-74
2022/12/28 04:44:22;;;;;;;12.90;10.05;;;;;;;12.43;100.00;102204.53;2101750;28;20812;-74
2022/12/28 04:45:43;;;;;;;16.52;9.88;;;;;;;12.44;100.00;102208.09;2100786;28;20385;-74
2022/12/28 04:47:05;;;;;;;12.02;8.90;;;;;;;12.46;100.00;102215.25;2108724;28;20052;-74
2022/12/28 04:48:27;;;;;;;15.55;10.30;;;;;;;12.47;100.00;102219.66;2103581;28;20048;-73
2022/12/28 04:49:49;;;;;;;14.52;8.20;;;;;;;12.45;100.00;102215.19;2100224;28;20048;-74
2022/12/28 04:51:16;;;;;;;13.55;10.52;;;;;;;12.45;100.00;102209.91;2101003;28;20051;-74
2022/12/28 04:52:40;;;;;;;14.98;10.57;;;;;;;12.45;100.00;102209.91;2100023;28;20048;-74
2022/12/28 04:54:02;;;;;;;12.25;8.43;;;;;;;12.43;100.00;102209.84;2102155;28;20040;-73
2022/12/28 04:55:23;;;;;;;12.75;7.38;;;;;;;12.44;100.00;102211.66;2100248;28;20572;-74
2022/12/28 04:56:46;;;;;;;13.20;6.70;;;;;;;12.46;100.00;102220.53;2100680;28;20075;-74
2022/12/28 04:58:07;;;;;;;11.30;6.35;;;;;;;12.46;100.00;102217.91;2102084;28;20047;-73
2022/12/28 04:59:29;;;;;;;11.27;7.72;;;;;;;12.46;100.00;102215.25;2102269;28;20044;-74
2022/12/28 05:00:52;;;;;;;11.88;7.40;;;;;;;12.47;100.00;102217.03;2099748;28;20147;-74
2022/12/28 05:02:13;;;;;;;13.27;8.93;;;;;;;12.47;100.00;102221.44;2093708;28;20049;-73
2022/12/28 05:03:36;;;;;;;13.27;9.50;;;;;;;12.43;100.00;102223.09;2101576;28;20411;-74
2022/12/28 05:04:59;;;;;;;13.18;8.70;;;;;;;12.40;100.00;102223.00;2096327;28;20037;-74
2022/12/28 05:06:22;;;;;;;12.30;7.00;;;;;;;12.37;100.00;102220.25;2101357;28;20055;-75
2022/12/28 05:07:46;;;;;;;10.30;5.68;;;;;;;12.31;100.00;102220.94;2093631;28;20049;-74
2022/12/28 05:09:08;;;;;;;10.43;6.63;;;;;;;12.25;100.00;102226.06;2093276;28;20391;-74
2022/12/28 05:10:29;;;;;;;15.52;9.40;;;;;;;12.20;100.00;102226.75;2093603;28;20673;-74
2022/12/28 05:11:52;;;;;;;16.65;9.60;;;;;;;12.18;100.00;102233.75;2085232;28;20045;-75
2022/12/28 05:13:14;;;;;;;11.32;8.30;;;;;;;12.16;100.00;102236.34;2099563;28;20036;-74
2022/12/28 05:14:37;;;;;;;12.93;8.13;;;;;;;12.16;100.00;102238.97;2096005;28;20049;-74
2022/12/28 05:16:01;;;;;;;11.98;7.43;;;;;;;12.14;100.00;102232.72;2096283;28;20040;-74
2022/12/28 05:17:24;;;;;;;10.75;7.20;;;;;;;12.13;100.00;102235.34;2102364;28;20056;-74
2022/12/28 05:18:47;;;;;;;10.38;7.35;;;;;;;12.11;100.00;102232.66;2102089;28;20520;-74
2022/12/28 05:20:10;;;;;;;16.00;9.77;;;;;;;12.11;100.00;102229.09;2101712;28;20048;-74
2022/12/28 05:21:32;;;;;;;14.27;10.60;;;;;;;12.09;100.00;102226.41;2104677;28;20089;-74
2022/12/28 05:22:57;;;;;;;17.30;10.38;;;;;;;12.08;100.00;102227.22;2101973;28;20543;-74
2022/12/28 05:24:19;;;;;;;18.27;12.70;;;;;;;12.06;100.00;102223.66;2100919;28;20036;-74
2022/12/28 05:25:42;;;;;;;17.73;13.68;;;;;;;12.06;100.00;102226.31;2102167;28;20519;-74
2022/12/28 05:27:05;;;;;;;18.52;12.10;;;;;;;12.06;100.00;102233.34;2093526;28;20090;-74
2022/12/28 05:28:26;;;;;;;17.05;12.88;;;;;;;12.05;100.00;102231.53;2091292;28;20048;-74
2022/12/28 05:29:49;;;;;;;19.60;12.95;;;;;;;12.04;100.00;102228.00;2101802;28;20503;-74
2022/12/28 05:31:12;;;;;;;15.18;11.75;;;;;;;12.04;100.00;102235.94;2104508;28;20409;-74
2022/12/28 05:32:34;;;;;;;17.15;11.55;;;;;;;12.06;100.00;102233.34;2101100;28;20062;-73
2022/12/28 05:33:56;;;;;;;13.95;9.70;;;;;;;12.06;100.00;102233.34;2101947;28;20051;-74
2022/12/28 05:35:17;;;;;;;12.93;7.47;;;;;;;12.02;100.00;102232.31;2099668;28;20040;-74
2022/12/28 05:36:40;;;;;;;10.23;6.57;;;;;;;12.02;100.00;102236.72;2097984;28;20334;-74
2022/12/28 05:38:03;;;;;;;19.05;13.20;;;;;;;12.02;100.00;102236.72;2104809;28;20628;-74
2022/12/28 05:39:26;;;;;;;21.30;17.48;;;;;;;12.02;100.00;102236.72;2096779;28;20041;-74
2022/12/28 05:40:47;;;;;;;28.85;21.27;;;;;;;12.08;100.00;102243.13;2095764;28;20118;-77
2022/12/28 05:42:09;;;;;;;23.75;18.23;;;;;;;12.17;100.00;102242.53;2094351;28;20500;-73
2022/12/28 05:43:30;;;;;;;18.77;14.68;;;;;;;12.25;100.00;102246.34;2102379;28;20051;-74
2022/12/28 05:44:53;;;;;;;15.18;11.38;;;;;;;12.32;100.00;102240.41;2101908;28;20066;-74
2022/12/28 05:46:18;;;;;;;15.48;11.57;;;;;;;12.40;100.00;102244.19;2106037;28;20075;-73
2022/12/28 05:47:40;;;;;;;17.15;12.20;;;;;;;12.47;100.00;102245.28;2100963;28;20051;-74
2022/12/28 05:49:01;;;;;;;15.23;10.35;;;;;;;12.50;100.00;102250.66;2103261;28;20505;-73
2022/12/28 05:50:24;;;;;;;13.68;10.27;;;;;;;12.51;100.00;102239.22;2101966;28;21726;-74
2022/12/28 05:51:48;;;;;;;16.45;10.52;;;;;;;12.52;100.00;102247.22;2102415;28;20035;-74
2022/12/28 05:53:12;;;;;;;14.80;9.32;;;;;;;12.53;100.00;102249.03;2108813;28;20055;-75
2022/12/28 05:54:34;;;;;;;21.55;12.68;;;;;;;12.54;100.00;102245.50;2100727;28;20047;-74
2022/12/28 05:56:00;;;;;;;17.08;10.85;;;;;;;12.56;100.00;102248.19;2101596;28;20647;-74
2022/12/28 05:57:23;;;;;;;11.35;7.40;;;;;;;12.52;100.00;102252.53;2100768;28;20138;-74
2022/12/28 05:58:47;;;;;;;19.65;11.60;;;;;;;12.47;100.00;102251.44;2101935;28;20048;-74
2022/12/28 06:00:10;;;;;;;18.25;13.07;;;;;;;12.45;100.00;102250.53;2100990;28;20062;-74
2022/12/28 06:01:36;;;;;;;22.55;15.23;;;;;;;12.48;100.00;102252.34;2093687;28;20459;-74
2022/12/28 06:02:57;;;;;;;26.13;16.80;;;;;;;12.53;100.00;102254.31;2100886;28;20036;-74
2022/12/28 06:04:20;;;;;;;29.08;24.17;;;;;;;12.57;100.00;102252.66;2101519;28;20123;-74
2022/12/28 06:05:41;;;;;;;37.25;31.83;;;;;;;12.59;100.00;102251.88;2104379;28;20067;-74
2022/12/28 06:07:04;;;;;;;28.17;23.10;;;;;;;12.58;100.00;102252.72;2100794;28;20040;-74
2022/12/28 06:08:27;;;;;;;18.50;13.23;;;;;;;12.59;100.00;102248.31;2102853;28;20078;-74
2022/12/28 06:09:49;;;;;;;24.23;17.95;;;;;;;12.61;100.00;102258.09;2101979;28;20746;-74
2022/12/28 06:11:13;;;;;;;28.25;24.00;;;;;;;12.67;100.00;102255.63;2091605;28;20048;-73
2022/12/28 06:12:36;;;;;;;26.85;20.17;;;;;;;12.77;100.00;102263.03;2102947;28;20051;-74
2022/12/28 06:13:59;;;;;;;45.78;39.58;;;;;;;12.90;100.00;102260.75;2101908;28;20036;-74
2022/12/28 06:15:25;;;;;;;35.95;30.08;;;;;;;12.99;100.00;102256.63;2103680;28;20097;-74
2022/12/28 06:16:47;;;;;;;32.05;27.08;;;;;;;13.08;100.00;102256.88;2098722;28;20066;-75
2022/12/28 06:18:08;;;;;;;34.60;26.25;;;;;;;13.15;100.00;102258.91;2102134;28;20043;-75
2022/12/28 06:19:31;;;;;;;35.75;31.80;;;;;;;13.22;100.00;102264.38;2102400;28;20036;-75
2022/12/28 06:20:52;;;;;;;35.70;31.33;;;;;;;13.24;100.00;102260.94;2101805;28;20508;-74
2022/12/28 06:22:14;;;;;;;30.55;25.80;;;;;;;13.27;100.00;102263.66;2097782;28;20040;-75
2022/12/28 06:23:37;;;;;;;19.38;15.73;;;;;;;13.25;100.00;102264.47;2099706;28;20052;-74
2022/12/28 06:24:59;;;;;;;23.67;20.52;;;;;;;13.21;100.00;102262.56;2100833;28;20075;-75
2022/12/28 06:26:22;;;;;;;19.90;17.13;;;;;;;13.25;100.00;102260.06;2094577;28;20055;-75
2022/12/28 06:27:43;;;;;;;27.50;24.02;;;;;;;13.38;100.00;102262.22;2104804;28;20532;-74
2022/12/28 06:29:05;;;;;;;91.45;82.13;;;;;;;13.50;100.00;102262.56;2104762;28;20056;-75
2022/12/28 06:30:28;;;;;;;83.78;75.05;;;;;;;13.59;100.00;102266.34;2109669;28;20040;-75
2022/12/28 06:31:52;;;;;;;58.38;52.25;;;;;;;13.66;100.00;102268.25;2102075;28;20040;-75
2022/12/28 06:33:14;;;;;;;47.20;41.70;;;;;;;13.70;100.00;102262.19;2102374;28;20485;-75
2022/12/28 06:34:37;;;;;;;40.85;36.33;;;;;;;13.70;100.00;102267.50;2094629;28;20136;-75
2022/12/28 06:35:58;;;;;;;28.08;22.33;;;;;;;13.69;100.00;102269.25;2097158;28;20417;-75
2022/12/28 06:37:21;;;;;;;14.50;10.63;;;;;;;13.70;100.00;102263.09;2100397;28;20152;-74
2022/12/28 06:38:44;;;;;;;12.45;7.75;;;;;;;13.73;100.00;102270.22;2102784;28;20043;-74
2022/12/28 06:40:07;;;;;;;10.20;7.07;;;;;;;13.78;100.00;102268.63;2109226;28;20285;-75
2022/12/28 06:41:29;;;;;;;19.50;14.70;;;;;;;13.88;100.00;102266.25;2097183;28;20060;-75
2022/12/28 06:42:51;;;;;;;;;;;;;;;13.98;100.00;102267.34;2103518;28;20060;-76
2022/12/28 06:44:12;;;;;;;30.50;27.30;;;;;;;14.17;100.00;102261.69;2097250;28;19921;-75
2022/12/28 06:45:37;;;;;;;27.77;20.63;;;;;;;14.37;100.00;102267.50;2098268;28;20048;-74
2022/12/28 06:47:00;;;;;;;24.88;22.00;;;;;;;14.54;100.00;102266.16;2100146;28;20036;-75
2022/12/28 06:48:22;;;;;;;26.45;22.42;;;;;;;14.69;100.00;102271.84;2095230;28;20524;-74
2022/12/28 06:49:44;;;;;;;28.95;25.83;;;;;;;14.83;100.00;102263.28;2104906;28;20093;-74